Time;durP1;ratioP1;P1;durP2;ratioP2;P2;SDS_P1;SDS_P2;PMS_P1;PMS_P2;Temp;Humidity;BMP_temperature;BMP_pressure;BME280_temperature;BME280_humidity;BME280_pressure;Samples;Min_cycle;Max_cycle;Signal;HPM_P1;HPM_P2
2024/02/14 00:00:50;;;;;;;4.97;3.40;;;10.00;99.90;;;;;;5043137;22;20504;-24
2024/02/14 00:03:16;;;;;;;4.73;3.90;;;10.00;99.90;;;;;;5042897;28;20458;-24
2024/02/14 00:05:42;;;;;;;4.07;3.23;;;10.00;99.90;;;;;;5035524;28;20445;-24
2024/02/14 00:08:08;;;;;;;4.07;3.67;;;10.00;99.90;;;;;;5059901;28;20410;-24
2024/02/14 00:10:36;;;;;;;5.93;3.80;;;10.00;99.90;;;;;;5057878;28;20495;-24
2024/02/14 00:13:05;;;;;;;4.03;3.60;;;10.00;99.90;;;;;;5041786;28;21259;-24
2024/02/14 00:15:31;;;;;;;4.30;3.47;;;10.00;99.90;;;;;;5059353;28;21260;-27
2024/02/14 00:18:00;;;;;;;5.00;3.43;;;10.00;99.90;;;;;;5025901;28;20773;-24
2024/02/14 00:20:29;;;;;;;4.50;3.30;;;10.00;99.90;;;;;;5059464;28;20418;-26
2024/02/14 00:22:59;;;;;;;6.93;3.20;;;10.00;99.90;;;;;;5040990;28;20473;-24
2024/02/14 00:25:25;;;;;;;4.13;3.73;;;10.00;99.90;;;;;;5058377;28;20487;-26
2024/02/14 00:27:54;;;;;;;3.73;3.40;;;10.00;99.90;;;;;;5057985;28;21271;-26
2024/02/14 00:30:20;;;;;;;3.40;2.90;;;10.00;99.90;;;;;;5040853;28;20964;-26
2024/02/14 00:33:06;;;;;;;3.80;3.50;;;10.00;99.90;;;;;;5028769;28;20442;-26
2024/02/14 00:35:32;;;;;;;4.70;3.43;;;10.00;99.90;;;;;;5058666;28;20834;-26
2024/02/14 00:37:58;;;;;;;5.13;4.13;;;10.00;99.90;;;;;;5058899;28;20434;-25
2024/02/14 00:40:26;;;;;;;3.27;2.97;;;10.00;99.90;;;;;;5058580;28;20437;-26
2024/02/14 00:42:52;;;;;;;4.70;3.00;;;10.00;99.90;;;;;;5059010;28;20468;-26
2024/02/14 00:45:18;;;;;;;4.17;3.10;;;10.00;99.90;;;;;;5055832;28;20493;-26
2024/02/14 00:47:47;;;;;;;4.70;2.60;;;10.00;99.90;;;;;;5059541;28;20465;-25
2024/02/14 00:50:15;;;;;;;4.43;3.20;;;10.00;99.90;;;;;;5024124;28;20433;-26
2024/02/14 00:52:42;;;;;;;3.47;3.00;;;10.00;99.90;;;;;;5040229;28;20915;-25
2024/02/14 00:55:08;;;;;;;3.20;2.90;;;10.00;99.90;;;;;;5056354;28;20438;-25
2024/02/14 00:57:36;;;;;;;3.90;2.90;;;10.00;99.90;;;;;;5060802;28;20426;-25
2024/02/14 01:00:05;;;;;;;3.90;2.70;;;10.00;99.90;;;;;;5043451;28;20614;-25
2024/02/14 01:02:33;;;;;;;4.13;3.00;;;10.00;99.90;;;;;;5041516;28;20469;-25
2024/02/14 01:05:02;;;;;;;4.13;3.73;;;10.00;99.90;;;;;;5059790;28;20422;-26
2024/02/14 01:07:30;;;;;;;4.43;2.73;;;10.00;99.90;;;;;;5059141;28;20440;-26
2024/02/14 01:09:56;;;;;;;4.07;3.30;;;10.00;99.90;;;;;;5039732;28;20422;-25
2024/02/14 01:12:22;;;;;;;4.67;3.23;;;10.00;99.90;;;;;;5040768;28;20446;-26
2024/02/14 01:14:50;;;;;;;3.07;2.87;;;10.00;99.90;;;;;;5025048;28;20422;-25
2024/02/14 01:17:16;;;;;;;3.63;3.07;;;10.00;99.90;;;;;;5037155;28;20437;-26
2024/02/14 01:19:43;;;;;;;6.20;3.87;;;10.00;99.90;;;;;;5038572;28;20467;-26
2024/02/14 01:22:11;;;;;;;5.03;3.20;;;10.00;99.90;;;;;;5043182;28;20911;-25
2024/02/14 01:24:43;;;;;;;3.13;2.67;;;10.00;99.90;;;;;;5056123;28;20445;-25
2024/02/14 01:27:09;;;;;;;3.07;2.27;;;10.00;99.90;;;;;;5040647;28;20928;-26
2024/02/14 01:29:38;;;;;;;3.07;2.60;;;10.00;99.90;;;;;;5059171;28;20422;-25
2024/02/14 01:32:06;;;;;;;4.03;2.97;;;10.00;99.90;;;;;;5040574;28;20513;-25
2024/02/14 01:34:35;;;;;;;3.33;2.70;;;10.00;99.90;;;;;;5040223;28;21000;-26
2024/02/14 01:37:01;;;;;;;3.80;2.93;;;10.00;99.90;;;;;;5023556;28;20441;-26
2024/02/14 01:39:29;;;;;;;3.53;3.07;;;10.00;99.90;;;;;;5058758;28;20511;-25
2024/02/14 01:41:57;;;;;;;2.73;2.53;;;10.00;99.90;;;;;;5052779;28;20473;-26
2024/02/14 01:44:23;;;;;;;2.83;2.57;;;10.00;99.90;;;;;;5057856;28;20468;-26
2024/02/14 01:46:50;;;;;;;2.93;2.37;;;10.00;99.90;;;;;;5022569;28;20809;-25
2024/02/14 01:49:16;;;;;;;3.53;3.23;;;10.00;99.90;;;;;;5039623;28;20517;-25
2024/02/14 01:51:46;;;;;;;4.00;2.93;;;10.00;99.90;;;;;;5060944;28;21391;-25
2024/02/14 01:54:13;;;;;;;5.30;3.07;;;10.00;99.90;;;;;;5055533;28;20882;-25
2024/02/14 01:56:44;;;;;;;4.20;3.00;;;10.00;99.90;;;;;;5060852;28;20479;-25
2024/02/14 01:59:10;;;;;;;3.60;2.60;;;10.00;99.90;;;;;;5044022;28;20457;-26
2024/02/14 02:01:39;;;;;;;2.83;2.40;;;10.00;99.90;;;;;;5059351;28;20548;-25
2024/02/14 02:04:05;;;;;;;3.00;2.53;;;10.00;99.90;;;;;;5044588;28;20457;-25
2024/02/14 02:06:34;;;;;;;4.63;2.80;;;10.00;99.90;;;;;;5026852;28;20793;-26
2024/02/14 02:09:03;;;;;;;2.60;2.40;;;10.00;99.90;;;;;;5061589;28;20465;-25
2024/02/14 02:11:30;;;;;;;2.43;2.23;;;10.00;99.90;;;;;;5043533;28;20450;-27
2024/02/14 02:14:20;;;;;;;2.90;2.60;;;10.00;99.90;;;;;;5031976;28;20465;-25
2024/02/14 02:17:11;;;;;;;3.70;2.60;;;10.00;99.90;;;;;;5059424;28;20476;-25
2024/02/14 02:19:58;;;;;;;3.23;2.67;;;10.00;99.90;;;;;;5040677;28;20425;-25
2024/02/14 02:22:44;;;;;;;3.73;3.10;;;10.00;99.90;;;;;;5041281;28;20523;-25
2024/02/14 02:25:30;;;;;;;3.50;2.60;;;10.00;99.90;;;;;;5046370;28;20433;-26
2024/02/14 02:28:14;;;;;;;3.23;2.80;;;10.00;99.90;;;;;;5060691;28;20868;-26
2024/02/14 02:30:46;;;;;;;3.10;2.40;;;10.00;99.90;;;;;;5020685;28;21069;-25
2024/02/14 02:33:14;;;;;;;2.73;2.53;;;10.00;99.90;;;;;;5059556;28;20822;-25
2024/02/14 02:35:44;;;;;;;2.17;1.97;;;10.00;99.90;;;;;;5057595;28;20548;-25
2024/02/14 02:38:29;;;;;;;2.53;2.33;;;10.00;99.90;;;;;;5059916;28;21112;-25
2024/02/14 02:41:18;;;;;;;7.43;2.50;;;10.00;99.90;;;;;;5061332;28;20488;-26
2024/02/14 02:44:08;;;;;;;1.93;1.83;;;10.00;99.90;;;;;;5042267;28;20522;-25
2024/02/14 02:47:03;;;;;;;2.40;2.20;;;10.00;99.90;;;;;;5044954;28;20519;-26
2024/02/14 02:49:50;;;;;;;2.27;2.10;;;10.00;99.90;;;;;;5054938;28;20503;-26
2024/02/14 02:52:38;;;;;;;3.50;2.20;;;10.00;99.90;;;;;;5060148;28;20473;-27
2024/02/14 02:55:26;;;;;;;2.60;2.40;;;10.00;99.90;;;;;;5021284;28;20432;-26
2024/02/14 02:58:00;;;;;;;3.03;2.43;;;10.00;99.90;;;;;;5038462;28;20845;-26
2024/02/14 03:00:29;;;;;;;2.33;2.10;;;10.00;99.90;;;;;;5062938;28;20429;-25
2024/02/14 03:03:08;;;;;;;2.40;2.20;;;10.00;99.90;;;;;;5036838;28;20486;-26
2024/02/14 03:05:55;;;;;;;2.70;2.23;;;10.00;99.90;;;;;;5043974;28;21134;-26
2024/02/14 03:08:36;;;;;;;2.60;2.30;;;10.00;99.90;;;;;;5060163;28;20929;-25
2024/02/14 03:11:29;;;;;;;2.50;2.30;;;10.00;99.90;;;;;;5029366;28;20453;-25
2024/02/14 03:14:15;;;;;;;2.33;2.10;;;10.00;99.90;;;;;;5041560;28;20461;-26
2024/02/14 03:17:04;;;;;;;1.97;1.87;;;10.00;99.90;;;;;;5023959;28;20518;-25
2024/02/14 03:19:33;;;;;;;2.90;2.43;;;10.00;99.90;;;;;;5045783;28;20422;-26
2024/02/14 03:22:01;;;;;;;2.60;2.27;;;10.00;99.90;;;;;;5063486;28;20505;-26
2024/02/14 03:24:27;;;;;;;2.57;2.13;;;10.00;99.90;;;;;;5060208;28;20438;-25
2024/02/14 03:26:55;;;;;;;2.87;2.23;;;10.00;99.90;;;;;;5051627;28;20441;-25
2024/02/14 03:29:22;;;;;;;2.77;2.27;;;10.00;99.90;;;;;;5060486;28;20457;-26
2024/02/14 03:31:51;;;;;;;3.20;2.43;;;10.00;99.90;;;;;;5041148;28;20435;-25
2024/02/14 03:34:19;;;;;;;2.47;2.20;;;10.00;99.90;;;;;;5038421;28;20454;-25
2024/02/14 03:36:45;;;;;;;2.43;2.10;;;10.10;99.90;;;;;;5041953;28;20545;-25
2024/02/14 03:39:11;;;;;;;3.63;2.37;;;10.10;99.90;;;;;;5041321;28;20627;-25
2024/02/14 03:41:37;;;;;;;2.40;2.20;;;10.10;99.90;;;;;;5060387;28;20481;-25
2024/02/14 03:44:03;;;;;;;2.43;2.23;;;10.10;99.90;;;;;;5042026;28;20486;-25
2024/02/14 03:46:30;;;;;;;2.60;2.20;;;10.10;99.90;;;;;;5059992;28;20418;-26
2024/02/14 03:48:56;;;;;;;3.10;2.80;;;10.10;99.90;;;;;;5059124;28;20422;-25
2024/02/14 03:51:27;;;;;;;2.80;2.27;;;10.10;99.90;;;;;;5059913;28;20509;-26
2024/02/14 03:53:58;;;;;;;2.50;2.30;;;10.10;99.90;;;;;;5041154;28;20529;-26
2024/02/14 03:56:24;;;;;;;2.40;2.20;;;10.10;99.90;;;;;;5041623;28;20529;-25
2024/02/14 03:58:51;;;;;;;2.43;2.23;;;10.10;99.90;;;;;;5024961;28;20423;-25
2024/02/14 04:01:19;;;;;;;3.20;2.57;;;10.10;99.90;;;;;;5058631;28;20488;-25
2024/02/14 04:03:47;;;;;;;3.43;2.57;;;10.10;99.90;;;;;;5030446;28;20525;-26
2024/02/14 04:06:18;;;;;;;3.83;2.17;;;10.10;99.90;;;;;;5045429;28;20430;-26
2024/02/14 04:08:44;;;;;;;2.47;2.27;;;10.10;99.90;;;;;;5035118;28;20512;-25
2024/02/14 04:11:13;;;;;;;3.20;2.30;;;10.10;99.90;;;;;;5057996;28;20432;-25
2024/02/14 04:13:42;;;;;;;4.97;2.60;;;10.10;99.90;;;;;;5035198;28;20445;-25
2024/02/14 04:16:08;;;;;;;2.60;2.40;;;10.10;99.90;;;;;;5024803;28;20828;-25
2024/02/14 04:18:43;;;;;;;2.83;2.47;;;10.10;99.90;;;;;;5055553;28;20432;-25
2024/02/14 04:21:09;;;;;;;2.80;2.50;;;10.10;99.90;;;;;;5055871;28;20474;-26
2024/02/14 04:23:39;;;;;;;2.67;2.40;;;10.20;99.90;;;;;;5055613;28;20446;-26
2024/02/14 04:26:05;;;;;;;3.03;2.30;;;10.20;99.90;;;;;;5057396;28;21534;-25
2024/02/14 04:28:31;;;;;;;9.17;2.50;;;10.10;99.90;;;;;;5058342;28;20418;-26
2024/02/14 04:30:58;;;;;;;2.40;2.20;;;10.20;99.90;;;;;;5041207;28;20464;-25
2024/02/14 04:33:27;;;;;;;2.67;2.47;;;10.20;99.90;;;;;;5040567;28;20457;-26
2024/02/14 04:35:55;;;;;;;3.37;2.50;;;10.10;99.90;;;;;;5059285;28;20429;-25
2024/02/14 04:38:24;;;;;;;2.60;2.40;;;10.20;99.90;;;;;;5050472;28;20453;-26
2024/02/14 04:40:50;;;;;;;3.13;2.40;;;10.20;99.90;;;;;;5052789;28;21179;-25
2024/02/14 04:43:16;;;;;;;3.03;2.73;;;10.20;99.90;;;;;;5040216;28;21457;-26
2024/02/14 04:45:42;;;;;;;3.43;2.50;;;10.20;99.90;;;;;;5040212;28;20428;-25
2024/02/14 04:48:12;;;;;;;3.53;2.50;;;10.20;99.90;;;;;;5040239;28;20446;-25
2024/02/14 04:50:40;;;;;;;3.00;2.70;;;10.20;99.90;;;;;;5036505;28;20449;-25
2024/02/14 04:53:09;;;;;;;2.40;2.20;;;10.20;99.90;;;;;;5037011;28;21564;-25
2024/02/14 04:55:37;;;;;;;2.73;2.53;;;10.20;99.90;;;;;;5036534;28;20457;-25
2024/02/14 04:58:05;;;;;;;4.30;2.40;;;10.20;99.90;;;;;;5038720;28;21035;-26
2024/02/14 05:00:31;;;;;;;2.63;2.43;;;10.20;99.90;;;;;;5036232;28;20631;-25
2024/02/14 05:02:59;;;;;;;2.80;2.50;;;10.20;99.90;;;;;;5036313;28;20585;-26
2024/02/14 05:05:25;;;;;;;2.50;2.23;;;10.20;99.90;;;;;;5050758;28;20501;-26
2024/02/14 05:07:58;;;;;;;2.53;2.33;;;10.20;99.90;;;;;;5047670;28;20438;-25
2024/02/14 05:10:24;;;;;;;3.40;2.50;;;10.20;99.90;;;;;;5019455;28;20418;-25
2024/02/14 05:12:50;;;;;;;4.20;2.27;;;10.20;99.90;;;;;;5023273;28;20515;-26
2024/02/14 05:15:19;;;;;;;3.00;2.40;;;10.20;99.90;;;;;;5039493;28;20465;-26
2024/02/14 05:17:45;;;;;;;2.60;2.40;;;10.20;99.90;;;;;;5057459;28;20422;-25
2024/02/14 05:20:12;;;;;;;3.10;2.10;;;10.20;99.90;;;;;;5054206;28;21003;-25
2024/02/14 05:22:38;;;;;;;2.80;2.60;;;10.20;99.90;;;;;;5057786;28;20478;-26
2024/02/14 05:25:07;;;;;;;2.40;2.20;;;10.20;99.90;;;;;;5039459;28;20421;-26
2024/02/14 05:27:40;;;;;;;2.33;2.13;;;10.20;99.90;;;;;;5052828;28;20453;-25
2024/02/14 05:30:07;;;;;;;6.93;2.67;;;10.20;99.90;;;;;;5055324;28;20424;-25
2024/02/14 05:32:36;;;;;;;2.90;2.70;;;10.20;99.90;;;;;;5035734;28;20992;-25
2024/02/14 05:35:05;;;;;;;2.90;2.30;;;10.20;99.90;;;;;;5035073;28;20518;-26
2024/02/14 05:37:32;;;;;;;2.70;2.50;;;10.20;99.90;;;;;;5052822;28;20437;-26
2024/02/14 05:40:07;;;;;;;3.07;2.40;;;10.20;99.90;;;;;;5048963;28;20496;-26
2024/02/14 05:42:34;;;;;;;3.10;2.50;;;10.20;99.90;;;;;;5035937;28;20887;-25
2024/02/14 05:45:01;;;;;;;4.47;2.50;;;10.20;99.90;;;;;;5019189;28;20450;-26
2024/02/14 05:47:28;;;;;;;2.37;2.17;;;10.20;99.90;;;;;;5057294;28;20449;-25
2024/02/14 05:49:56;;;;;;;2.80;2.60;;;10.30;99.90;;;;;;5006125;28;20461;-25
2024/02/14 05:52:22;;;;;;;2.73;2.20;;;10.30;99.90;;;;;;5035570;28;20458;-25
2024/02/14 05:54:50;;;;;;;2.70;2.50;;;10.30;99.90;;;;;;5053756;28;20473;-25
2024/02/14 05:57:17;;;;;;;3.67;2.87;;;10.30;99.90;;;;;;5056541;28;20445;-25
2024/02/14 05:59:45;;;;;;;2.77;2.57;;;10.30;99.90;;;;;;5034871;28;21002;-26
2024/02/14 06:02:11;;;;;;;2.87;2.67;;;10.30;99.90;;;;;;5057739;28;20473;-25
2024/02/14 06:04:37;;;;;;;3.67;2.40;;;10.30;99.90;;;;;;5057165;28;20519;-26
2024/02/14 06:07:08;;;;;;;4.00;2.40;;;10.30;99.90;;;;;;5019873;28;20448;-26
2024/02/14 06:09:34;;;;;;;2.30;1.90;;;10.30;99.90;;;;;;5039069;28;20454;-25
2024/02/14 06:12:05;;;;;;;3.30;2.80;;;10.30;99.90;;;;;;5054345;28;20502;-26
2024/02/14 06:14:33;;;;;;;3.40;2.40;;;10.30;99.90;;;;;;5035492;28;20950;-26
2024/02/14 06:17:00;;;;;;;3.10;2.80;;;10.30;99.90;;;;;;5033449;28;20450;-25
2024/02/14 06:19:27;;;;;;;3.20;2.50;;;10.30;99.90;;;;;;5053698;28;20426;-26
2024/02/14 06:21:56;;;;;;;2.70;2.50;;;10.30;99.90;;;;;;5049550;28;20461;-26
2024/02/14 06:24:22;;;;;;;2.90;2.60;;;10.30;99.90;;;;;;5038834;28;20465;-25
2024/02/14 06:26:48;;;;;;;2.43;2.23;;;10.30;99.90;;;;;;5018794;28;20517;-26
2024/02/14 06:29:14;;;;;;;2.17;1.97;;;10.30;99.90;;;;;;5016884;28;20490;-26
2024/02/14 06:31:40;;;;;;;5.93;3.10;;;10.30;99.90;;;;;;5015786;28;21083;-26
2024/02/14 06:34:08;;;;;;;6.70;2.50;;;10.30;99.90;;;;;;5019341;28;21630;-25
2024/02/14 06:36:34;;;;;;;4.33;2.30;;;10.30;99.90;;;;;;5053542;28;20438;-26
2024/02/14 06:39:00;;;;;;;3.40;2.37;;;10.30;99.90;;;;;;5039243;28;20521;-25
2024/02/14 06:41:26;;;;;;;6.07;2.50;;;10.30;99.90;;;;;;5038711;28;21106;-25
2024/02/14 06:43:52;;;;;;;2.97;2.50;;;10.30;99.90;;;;;;5060628;28;20612;-26
2024/02/14 06:46:18;;;;;;;4.43;2.63;;;10.30;99.90;;;;;;5042471;28;20437;-26
2024/02/14 06:48:47;;;;;;;5.83;2.80;;;10.30;99.90;;;;;;5058416;28;20497;-25
2024/02/14 06:51:13;;;;;;;3.73;2.33;;;10.30;99.90;;;;;;5041756;28;20453;-26
2024/02/14 06:53:39;;;;;;;2.20;2.00;;;10.30;99.90;;;;;;5042081;28;20446;-25
2024/02/14 06:56:05;;;;;;;2.67;2.37;;;10.30;99.90;;;;;;5038992;28;20525;-26
2024/02/14 06:58:31;;;;;;;5.20;3.00;;;10.30;99.90;;;;;;5060184;28;20430;-26
2024/02/14 07:00:57;;;;;;;3.10;2.90;;;10.30;99.90;;;;;;5056094;28;20491;-26
2024/02/14 07:03:23;;;;;;;3.60;3.30;;;10.30;99.90;;;;;;5038470;28;20476;-26
2024/02/14 07:05:51;;;;;;;3.00;2.63;;;10.30;99.90;;;;;;5056265;28;21189;-26
2024/02/14 07:08:20;;;;;;;3.30;2.87;;;10.30;99.90;;;;;;5019241;28;20457;-26
2024/02/14 07:10:46;;;;;;;3.30;3.00;;;10.30;99.90;;;;;;5040237;28;20418;-25
2024/02/14 07:13:17;;;;;;;3.60;2.83;;;10.30;99.90;;;;;;5054193;28;20510;-25
2024/02/14 07:15:43;;;;;;;3.30;2.87;;;10.40;99.90;;;;;;5037759;28;20444;-25
2024/02/14 07:18:09;;;;;;;6.80;3.30;;;10.40;99.90;;;;;;5039974;28;20482;-25
2024/02/14 07:20:38;;;;;;;2.97;2.60;;;10.40;99.90;;;;;;5020572;28;20445;-25
2024/02/14 07:23:05;;;;;;;3.40;3.20;;;10.30;99.90;;;;;;5058352;28;20632;-25
2024/02/14 07:25:31;;;;;;;3.23;2.50;;;10.40;99.90;;;;;;5056310;28;20463;-25
2024/02/14 07:27:57;;;;;;;3.30;3.00;;;10.40;99.90;;;;;;5036269;28;20441;-25
2024/02/14 07:30:23;;;;;;;2.93;2.73;;;10.40;99.90;;;;;;5036725;28;20544;-25
2024/02/14 07:32:51;;;;;;;3.80;3.20;;;10.40;99.90;;;;;;5038172;28;20441;-25
2024/02/14 07:35:19;;;;;;;2.90;2.70;;;10.30;99.90;;;;;;5017767;28;20764;-25
2024/02/14 07:37:46;;;;;;;2.67;2.47;;;10.40;99.90;;;;;;5059173;28;20509;-25
2024/02/14 07:40:14;;;;;;;2.83;2.63;;;10.40;99.90;;;;;;5037670;28;20469;-26
2024/02/14 07:43:02;;;;;;;2.97;2.70;;;10.40;99.90;;;;;;5051277;28;20577;-25
2024/02/14 07:45:28;;;;;;;2.97;2.60;;;10.40;99.90;;;;;;5020241;28;20440;-25
2024/02/14 07:47:54;;;;;;;3.47;2.80;;;10.40;99.90;;;;;;5057265;28;20426;-26
2024/02/14 07:50:21;;;;;;;3.97;2.87;;;10.40;99.90;;;;;;5048614;28;20859;-25
2024/02/14 07:52:55;;;;;;;2.93;2.73;;;10.40;99.90;;;;;;5054777;28;20450;-25
2024/02/14 07:55:22;;;;;;;3.10;2.80;;;10.40;99.90;;;;;;5053174;28;20451;-25
2024/02/14 07:57:48;;;;;;;4.00;2.97;;;10.40;99.90;;;;;;5036835;28;20437;-26
2024/02/14 08:00:22;;;;;;;3.10;2.80;;;10.40;99.90;;;;;;5038510;28;20440;-25
2024/02/14 08:02:52;;;;;;;3.20;2.67;;;10.40;99.90;;;;;;5039478;28;21082;-25
2024/02/14 08:05:18;;;;;;;5.40;2.47;;;10.40;99.90;;;;;;5057684;28;20418;-25
2024/02/14 08:07:46;;;;;;;3.53;2.67;;;10.40;99.90;;;;;;5031133;28;20441;-25
2024/02/14 08:10:13;;;;;;;4.93;2.93;;;10.40;99.90;;;;;;5057626;28;20423;-25
2024/02/14 08:12:39;;;;;;;2.70;2.50;;;10.40;99.90;;;;;;5053067;28;20478;-25
2024/02/14 08:15:06;;;;;;;2.70;2.43;;;10.40;99.90;;;;;;5049394;28;20503;-25
2024/02/14 08:17:33;;;;;;;2.40;2.20;;;10.40;99.90;;;;;;5034829;28;20514;-25
2024/02/14 08:20:03;;;;;;;3.93;2.50;;;10.40;99.90;;;;;;5023288;28;20446;-26
2024/02/14 08:22:31;;;;;;;2.60;2.40;;;10.40;99.90;;;;;;5020448;28;20486;-25
2024/02/14 08:25:00;;;;;;;2.60;2.40;;;10.40;99.90;;;;;;5050433;28;20516;-25
2024/02/14 08:27:28;;;;;;;2.70;2.40;;;10.40;99.90;;;;;;5035216;28;20956;-25
2024/02/14 08:29:55;;;;;;;3.10;2.30;;;10.40;99.90;;;;;;5040115;28;20422;-25
2024/02/14 08:32:21;;;;;;;3.43;2.37;;;10.40;99.90;;;;;;5033977;28;20467;-25
2024/02/14 08:34:47;;;;;;;3.80;2.80;;;10.40;99.90;;;;;;5050973;28;20473;-25
2024/02/14 08:37:16;;;;;;;3.07;2.40;;;10.40;99.90;;;;;;5046996;28;20972;-25
2024/02/14 08:39:47;;;;;;;2.67;2.43;;;10.40;99.90;;;;;;5053679;28;20460;-26
2024/02/14 08:42:25;;;;;;;5.00;2.63;;;10.40;99.90;;;;;;4995730;28;20487;-81
2024/02/14 08:44:51;;;;;;;2.33;2.13;;;10.40;99.90;;;;;;5019471;28;20432;-82
2024/02/14 08:47:17;;;;;;;3.93;2.93;;;10.40;99.90;;;;;;5016490;28;20475;-82
2024/02/14 08:49:43;;;;;;;4.33;2.60;;;10.40;99.90;;;;;;5012952;28;21171;-82
2024/02/14 08:52:09;;;;;;;3.33;2.70;;;10.50;99.90;;;;;;5011418;28;20454;-81
2024/02/14 08:54:35;;;;;;;3.40;2.60;;;10.40;99.90;;;;;;5008546;28;20449;-82
2024/02/14 08:57:02;;;;;;;3.67;2.50;;;10.50;99.90;;;;;;5009011;28;20508;-81
2024/02/14 08:59:30;;;;;;;2.60;2.40;;;10.50;99.90;;;;;;5011478;28;20986;-82
2024/02/14 09:01:56;;;;;;;2.40;2.17;;;10.50;99.90;;;;;;4988179;28;20495;-82
2024/02/14 09:04:22;;;;;;;2.47;2.27;;;10.50;99.90;;;;;;5007099;28;20425;-82
2024/02/14 09:06:50;;;;;;;2.53;2.33;;;10.50;99.90;;;;;;5018033;28;20446;-82
2024/02/14 09:09:19;;;;;;;4.17;2.50;;;10.50;99.90;;;;;;5006126;28;20420;-81
2024/02/14 09:11:46;;;;;;;3.23;2.47;;;10.50;99.90;;;;;;5006938;28;20429;-80
2024/02/14 09:14:16;;;;;;;2.70;2.00;;;10.50;99.90;;;;;;4981976;28;21276;-82
2024/02/14 09:16:42;;;;;;;4.80;3.00;;;10.50;99.90;;;;;;4988649;28;20760;-79
2024/02/14 09:19:09;;;;;;;2.20;2.00;;;10.50;99.90;;;;;;4996529;28;20504;-82
2024/02/14 09:21:43;;;;;;;3.53;2.43;;;10.50;99.90;;;;;;5006419;28;20851;-80
2024/02/14 09:24:09;;;;;;;2.90;2.40;;;10.60;99.90;;;;;;4990154;28;21172;-80
2024/02/14 09:26:35;;;;;;;3.23;2.60;;;10.60;99.90;;;;;;4992092;28;20472;-82
2024/02/14 09:29:01;;;;;;;4.00;2.27;;;10.60;99.90;;;;;;5010278;28;20430;-81
2024/02/14 09:31:29;;;;;;;3.27;2.47;;;10.60;99.90;;;;;;5013137;28;20440;-81
2024/02/14 09:33:58;;;;;;;2.57;2.37;;;10.60;99.90;;;;;;5003045;28;20479;-80
2024/02/14 09:36:26;;;;;;;3.00;2.63;;;10.60;99.90;;;;;;4994856;28;20424;-81
2024/02/14 09:38:55;;;;;;;2.57;2.30;;;10.60;99.90;;;;;;5009191;28;20438;-81
2024/02/14 09:41:35;;;;;;;2.50;2.30;;;10.60;99.90;;;;;;5014696;28;20498;-81
2024/02/14 09:44:04;;;;;;;3.60;2.40;;;10.60;99.90;;;;;;5007796;28;20515;-81
2024/02/14 09:46:30;;;;;;;4.00;2.43;;;10.60;99.90;;;;;;4993274;28;21006;-81
2024/02/14 09:49:03;;;;;;;2.80;2.60;;;10.60;99.90;;;;;;5012335;28;20420;-81
2024/02/14 09:51:29;;;;;;;1.97;1.83;;;10.60;99.90;;;;;;5019493;28;20440;-81
2024/02/14 09:54:01;;;;;;;3.70;2.40;;;10.70;99.90;;;;;;4985753;28;20464;-81
2024/02/14 09:56:31;;;;;;;2.67;2.00;;;10.70;99.90;;;;;;5004850;28;20445;-81
2024/02/14 09:59:00;;;;;;;2.87;2.60;;;10.70;99.90;;;;;;4972497;28;20479;-81
2024/02/14 10:01:26;;;;;;;2.90;2.27;;;10.70;99.90;;;;;;5010322;28;20557;-82
2024/02/14 10:03:55;;;;;;;4.73;2.73;;;10.70;99.90;;;;;;5007449;28;20449;-81
2024/02/14 10:06:23;;;;;;;4.23;2.67;;;10.70;99.90;;;;;;5005580;28;20966;-82
2024/02/14 10:08:53;;;;;;;4.50;2.47;;;10.70;99.90;;;;;;5006817;28;20429;-80
2024/02/14 10:11:21;;;;;;;4.13;2.47;;;10.70;99.90;;;;;;5000401;28;21132;-81
2024/02/14 10:13:47;;;;;;;3.50;2.50;;;10.70;99.90;;;;;;5006116;28;20943;-81
2024/02/14 10:16:14;;;;;;;5.10;2.40;;;10.70;99.90;;;;;;4992342;28;20439;-80
2024/02/14 10:18:41;;;;;;;4.00;2.90;;;10.70;99.90;;;;;;4982657;28;20452;-81
2024/02/14 10:21:18;;;;;;;4.40;2.57;;;10.70;99.90;;;;;;5012636;28;21134;-81
2024/02/14 10:23:46;;;;;;;3.70;2.23;;;10.70;99.90;;;;;;5022000;28;20428;-81
2024/02/14 10:26:17;;;;;;;2.77;2.57;;;10.80;99.90;;;;;;4979930;28;20452;-81
2024/02/14 10:28:44;;;;;;;2.67;2.47;;;10.80;99.90;;;;;;5010956;28;20439;-81
2024/02/14 10:31:16;;;;;;;3.60;2.47;;;10.80;99.90;;;;;;4993110;28;20436;-81
2024/02/14 10:33:45;;;;;;;3.67;2.30;;;10.80;99.90;;;;;;5016464;28;20946;-81
2024/02/14 10:36:13;;;;;;;3.30;2.30;;;10.80;99.90;;;;;;5014521;28;20460;-81
2024/02/14 10:38:40;;;;;;;3.20;2.43;;;10.80;99.90;;;;;;4992301;28;20454;-82
2024/02/14 10:41:10;;;;;;;2.53;2.30;;;10.80;99.90;;;;;;4991013;28;20517;-81
2024/02/14 10:43:40;;;;;;;2.90;2.63;;;10.80;99.90;;;;;;5013247;28;20516;-80
2024/02/14 10:46:12;;;;;;;6.40;2.50;;;10.90;99.90;;;;;;4993663;28;21139;-81
2024/02/14 10:48:38;;;;;;;3.57;2.40;;;10.90;99.90;;;;;;4991928;28;20432;-81
2024/02/14 10:51:06;;;;;;;4.13;2.40;;;10.90;99.90;;;;;;4992668;28;20483;-81
2024/02/14 10:53:38;;;;;;;2.73;2.40;;;10.90;99.90;;;;;;5009473;28;20755;-82
2024/02/14 10:56:05;;;;;;;3.30;2.33;;;10.90;99.90;;;;;;5013902;28;20436;-80
2024/02/14 10:58:34;;;;;;;3.60;2.43;;;10.90;99.90;;;;;;5000528;28;20538;-81
2024/02/14 11:01:07;;;;;;;7.33;2.50;;;10.90;99.90;;;;;;5001711;28;20776;-81
2024/02/14 11:03:33;;;;;;;4.27;3.00;;;10.90;99.90;;;;;;5001494;28;20486;-81
2024/02/14 11:06:06;;;;;;;4.67;2.50;;;10.90;99.90;;;;;;5025021;28;20551;-82
2024/02/14 11:08:33;;;;;;;3.40;2.43;;;11.00;99.90;;;;;;5015576;28;20853;-79
2024/02/14 11:11:01;;;;;;;3.43;2.57;;;11.00;99.90;;;;;;5017683;28;20440;-81
2024/02/14 11:13:33;;;;;;;4.00;2.50;;;11.00;99.90;;;;;;5002019;28;20449;-82
2024/02/14 11:16:07;;;;;;;3.47;2.10;;;11.00;99.90;;;;;;5016375;28;20446;-81
2024/02/14 11:18:33;;;;;;;6.67;2.60;;;11.00;99.90;;;;;;5015663;28;20452;-81
2024/02/14 11:20:59;;;;;;;3.13;2.20;;;11.10;99.90;;;;;;4999263;28;20443;-82
2024/02/14 11:23:31;;;;;;;2.97;2.30;;;11.10;99.90;;;;;;5017693;28;20476;-81
2024/02/14 11:26:04;;;;;;;3.20;2.20;;;11.10;99.90;;;;;;5006966;28;20448;-82
2024/02/14 11:28:30;;;;;;;2.73;2.20;;;11.10;99.90;;;;;;4987664;28;20952;-81
2024/02/14 11:31:47;;;;;;;2.93;2.20;;;11.10;99.90;;;;;;5014487;28;20448;-82
2024/02/14 11:34:14;;;;;;;5.50;2.33;;;11.10;99.90;;;;;;5010591;28;20433;-83
2024/02/14 11:36:45;;;;;;;4.30;1.97;;;11.10;99.90;;;;;;4999682;28;20469;-79
2024/02/14 11:39:14;;;;;;;3.07;2.10;;;11.20;99.90;;;;;;4998820;28;20507;-81
2024/02/14 11:41:42;;;;;;;4.50;2.00;;;11.20;99.90;;;;;;4993471;28;20563;-82
2024/02/14 11:44:08;;;;;;;2.97;2.20;;;11.20;99.90;;;;;;5011980;28;20453;-81
2024/02/14 11:46:35;;;;;;;2.47;1.70;;;11.20;99.90;;;;;;5012057;28;20932;-82
2024/02/14 11:49:03;;;;;;;2.60;2.30;;;11.20;99.90;;;;;;5009761;28;20501;-82
2024/02/14 11:51:37;;;;;;;4.07;2.20;;;11.20;99.90;;;;;;5009498;28;20449;-82
2024/02/14 11:54:07;;;;;;;2.30;2.10;;;11.20;99.90;;;;;;5010741;28;20773;-81
2024/02/14 11:56:36;;;;;;;2.40;2.10;;;11.20;99.90;;;;;;4984228;28;20469;-81
2024/02/14 11:59:04;;;;;;;1.80;1.70;;;11.30;99.90;;;;;;5007084;28;20455;-81
2024/02/14 12:01:31;;;;;;;2.73;2.10;;;11.30;99.90;;;;;;4990078;28;20483;-81
2024/02/14 12:04:07;;;;;;;4.63;2.20;;;11.30;99.90;;;;;;5012576;28;20522;-81
2024/02/14 12:06:36;;;;;;;2.63;2.43;;;11.30;99.90;;;;;;5010013;28;20531;-82
2024/02/14 12:09:06;;;;;;;3.70;1.93;;;11.30;99.90;;;;;;5020682;28;20928;-81
2024/02/14 12:11:40;;;;;;;3.50;1.93;;;11.30;99.90;;;;;;4990695;28;20814;-82
2024/02/14 12:14:08;;;;;;;2.53;2.33;;;11.30;99.90;;;;;;4978695;28;20440;-81
2024/02/14 12:16:39;;;;;;;2.50;2.00;;;11.40;99.90;;;;;;5008514;28;20707;-82
2024/02/14 12:19:18;;;;;;;2.97;1.83;;;11.40;99.90;;;;;;5007640;28;20564;-81
2024/02/14 12:21:48;;;;;;;2.90;2.03;;;11.40;99.90;;;;;;5008109;28;20471;-81
2024/02/14 12:24:16;;;;;;;2.20;2.00;;;11.40;99.90;;;;;;4978281;28;20436;-80
2024/02/14 12:26:48;;;;;;;2.40;2.20;;;11.40;99.90;;;;;;5005029;28;20484;-81
2024/02/14 12:29:17;;;;;;;3.90;2.07;;;11.40;99.90;;;;;;5006785;28;20993;-82
2024/02/14 12:31:48;;;;;;;1.93;1.70;;;11.40;99.90;;;;;;5018617;28;20463;-81
2024/02/14 12:34:18;;;;;;;2.93;2.20;;;11.40;99.90;;;;;;4990017;28;20461;-81
2024/02/14 12:36:45;;;;;;;2.27;2.00;;;11.50;99.90;;;;;;4997850;28;20475;-81
2024/02/14 12:39:12;;;;;;;3.00;2.33;;;11.50;99.90;;;;;;5014353;28;20913;-80
2024/02/14 12:41:40;;;;;;;3.10;2.43;;;11.50;99.90;;;;;;5009766;28;21061;-81
2024/02/14 12:44:08;;;;;;;1.90;1.80;;;11.50;99.90;;;;;;5009742;28;20436;-82
2024/02/14 12:46:37;;;;;;;2.10;2.00;;;11.50;99.90;;;;;;4999932;28;20457;-82
2024/02/14 12:49:11;;;;;;;2.50;2.00;;;11.50;99.90;;;;;;4997284;28;20531;-83
2024/02/14 12:51:38;;;;;;;2.20;2.00;;;11.50;99.90;;;;;;4991457;28;20530;-82
2024/02/14 12:54:09;;;;;;;2.83;2.10;;;11.50;99.90;;;;;;5008296;28;20428;-81
2024/02/14 12:56:35;;;;;;;2.97;2.13;;;11.50;99.90;;;;;;4991817;28;20715;-81
2024/02/14 12:59:03;;;;;;;7.13;2.37;;;11.50;99.90;;;;;;5008981;28;20465;-81